sensor_id;sensor_type;location;lat;lon;timestamp;pressure;altitude;pressure_sealevel;temperature;humidity
11444;BME280;5778;47.856;12.154;2023-08-17T00:01:07;96444.19;;;19.79;100.00
11444;BME280;5778;47.856;12.154;2023-08-17T00:03:34;96436.09;;;19.79;100.00
11444;BME280;5778;47.856;12.154;2023-08-17T00:06:01;96449.56;;;19.79;100.00
11444;BME280;5778;47.856;12.154;2023-08-17T00:08:28;96444.59;;;19.72;100.00
11444;BME280;5778;47.856;12.154;2023-08-17T00:10:55;96448.75;;;19.56;100.00
11444;BME280;5778;47.856;12.154;2023-08-17T00:13:22;96449.59;;;19.43;100.00
11444;BME280;5778;47.856;12.154;2023-08-17T00:15:51;96453.72;;;19.41;100.00
11444;BME280;5778;47.856;12.154;2023-08-17T00:18:18;96459.44;;;19.61;100.00
11444;BME280;5778;47.856;12.154;2023-08-17T00:20:46;96459.19;;;19.71;100.00
11444;BME280;5778;47.856;12.154;2023-08-17T00:23:13;96467.13;;;19.68;100.00
11444;BME280;5778;47.856;12.154;2023-08-17T00:25:40;96476.19;;;19.72;100.00
11444;BME280;5778;47.856;12.154;2023-08-17T00:28:07;96479.75;;;19.81;100.00
11444;BME280;5778;47.856;12.154;2023-08-17T00:30:34;96477.16;;;19.76;100.00
11444;BME280;5778;47.856;12.154;2023-08-17T00:33:05;96472.47;;;19.81;100.00
11444;BME280;5778;47.856;12.154;2023-08-17T00:35:32;96476.56;;;19.79;100.00
11444;BME280;5778;47.856;12.154;2023-08-17T00:37:59;96482.75;;;19.79;100.00
11444;BME280;5778;47.856;12.154;2023-08-17T00:40:26;96478.50;;;19.87;100.00
11444;BME280;5778;47.856;12.154;2023-08-17T00:42:53;96474.59;;;19.71;100.00
11444;BME280;5778;47.856;12.154;2023-08-17T00:45:22;96471.16;;;19.79;100.00
11444;BME280;5778;47.856;12.154;2023-08-17T00:47:49;96469.50;;;19.69;100.00
11444;BME280;5778;47.856;12.154;2023-08-17T00:50:17;96467.88;;;19.68;100.00
11444;BME280;5778;47.856;12.154;2023-08-17T00:52:45;96466.06;;;19.55;100.00
11444;BME280;5778;47.856;12.154;2023-08-17T00:55:12;96469.03;;;19.54;100.00
11444;BME280;5778;47.856;12.154;2023-08-17T00:57:40;96471.63;;;19.59;100.00
11444;BME280;5778;47.856;12.154;2023-08-17T01:00:08;96465.56;;;19.53;100.00
11444;BME280;5778;47.856;12.154;2023-08-17T01:02:36;96472.84;;;19.53;100.00
11444;BME280;5778;47.856;12.154;2023-08-17T01:05:03;96471.16;;;19.57;100.00
11444;BME280;5778;47.856;12.154;2023-08-17T01:07:34;96475.53;;;19.53;100.00
11444;BME280;5778;47.856;12.154;2023-08-17T01:10:01;96479.34;;;19.52;100.00
11444;BME280;5778;47.856;12.154;2023-08-17T01:12:30;96480.50;;;19.37;100.00
11444;BME280;5778;47.856;12.154;2023-08-17T01:15:04;96481.38;;;19.33;100.00
11444;BME280;5778;47.856;12.154;2023-08-17T01:17:41;96472.84;;;18.90;100.00
11444;BME280;5778;47.856;12.154;2023-08-17T01:20:10;96470.53;;;18.97;100.00
11444;BME280;5778;47.856;12.154;2023-08-17T01:22:41;96470.63;;;19.06;100.00
11444;BME280;5778;47.856;12.154;2023-08-17T01:25:11;96464.63;;;19.09;100.00
11444;BME280;5778;47.856;12.154;2023-08-17T01:27:40;96467.03;;;19.24;100.00
11444;BME280;5778;47.856;12.154;2023-08-17T01:30:08;96478.69;;;19.33;100.00
11444;BME280;5778;47.856;12.154;2023-08-17T01:32:39;96481.09;;;19.34;100.00
11444;BME280;5778;47.856;12.154;2023-08-17T01:35:14;96486.09;;;19.27;100.00
11444;BME280;5778;47.856;12.154;2023-08-17T01:37:43;96483.88;;;19.16;100.00
11444;BME280;5778;47.856;12.154;2023-08-17T01:40:12;96474.22;;;19.15;100.00
11444;BME280;5778;47.856;12.154;2023-08-17T01:42:41;96470.09;;;19.17;100.00
11444;BME280;5778;47.856;12.154;2023-08-17T01:45:09;96468.25;;;19.04;100.00
11444;BME280;5778;47.856;12.154;2023-08-17T01:47:36;96465.22;;;19.06;100.00
11444;BME280;5778;47.856;12.154;2023-08-17T01:50:04;96461.25;;;18.90;100.00
11444;BME280;5778;47.856;12.154;2023-08-17T01:52:31;96472.91;;;19.12;100.00
11444;BME280;5778;47.856;12.154;2023-08-17T01:55:00;96475.22;;;19.05;100.00
11444;BME280;5778;47.856;12.154;2023-08-17T01:57:28;96469.03;;;19.05;100.00
11444;BME280;5778;47.856;12.154;2023-08-17T01:59:56;96480.09;;;19.17;100.00
11444;BME280;5778;47.856;12.154;2023-08-17T02:02:23;96478.59;;;18.97;100.00
11444;BME280;5778;47.856;12.154;2023-08-17T02:04:50;96481.53;;;19.01;100.00
11444;BME280;5778;47.856;12.154;2023-08-17T02:07:17;96462.25;;;18.67;100.00
11444;BME280;5778;47.856;12.154;2023-08-17T02:09:48;96464.16;;;18.93;100.00
11444;BME280;5778;47.856;12.154;2023-08-17T02:12:15;96465.94;;;18.84;100.00
11444;BME280;5778;47.856;12.154;2023-08-17T02:14:44;96471.94;;;18.68;100.00
11444;BME280;5778;47.856;12.154;2023-08-17T02:17:11;96467.63;;;18.53;100.00
11444;BME280;5778;47.856;12.154;2023-08-17T02:19:39;96470.84;;;18.69;100.00
11444;BME280;5778;47.856;12.154;2023-08-17T02:22:06;96469.75;;;18.70;100.00
11444;BME280;5778;47.856;12.154;2023-08-17T02:24:33;96463.34;;;18.79;100.00
11444;BME280;5778;47.856;12.154;2023-08-17T02:27:00;96465.03;;;18.75;100.00
11444;BME280;5778;47.856;12.154;2023-08-17T02:29:27;96472.84;;;18.77;100.00
11444;BME280;5778;47.856;12.154;2023-08-17T02:31:55;96460.56;;;18.98;100.00
11444;BME280;5778;47.856;12.154;2023-08-17T02:34:26;96450.19;;;18.78;100.00
11444;BME280;5778;47.856;12.154;2023-08-17T02:36:53;96452.66;;;18.88;100.00
11444;BME280;5778;47.856;12.154;2023-08-17T02:39:20;96449.19;;;18.87;100.00
11444;BME280;5778;47.856;12.154;2023-08-17T02:41:47;96439.81;;;18.85;100.00
11444;BME280;5778;47.856;12.154;2023-08-17T02:44:15;96451.88;;;19.01;100.00
11444;BME280;5778;47.856;12.154;2023-08-17T02:46:42;96438.72;;;18.86;100.00
11444;BME280;5778;47.856;12.154;2023-08-17T02:49:11;96425.25;;;18.59;100.00
11444;BME280;5778;47.856;12.154;2023-08-17T02:51:38;96433.81;;;18.61;100.00
11444;BME280;5778;47.856;12.154;2023-08-17T02:54:05;96435.84;;;18.55;100.00
11444;BME280;5778;47.856;12.154;2023-08-17T02:56:32;96442.19;;;18.59;100.00
11444;BME280;5778;47.856;12.154;2023-08-17T02:59:01;96434.34;;;18.49;100.00
11444;BME280;5778;47.856;12.154;2023-08-17T03:01:28;96426.75;;;18.51;100.00
11444;BME280;5778;47.856;12.154;2023-08-17T03:03:56;96425.44;;;18.35;100.00
11444;BME280;5778;47.856;12.154;2023-08-17T03:06:25;96432.81;;;18.57;100.00
11444;BME280;5778;47.856;12.154;2023-08-17T03:08:52;96427.94;;;18.32;100.00
11444;BME280;5778;47.856;12.154;2023-08-17T03:11:20;96436.59;;;18.42;100.00
11444;BME280;5778;47.856;12.154;2023-08-17T03:13:47;96428.38;;;18.20;100.00
11444;BME280;5778;47.856;12.154;2023-08-17T03:16:14;96431.69;;;18.31;100.00
11444;BME280;5778;47.856;12.154;2023-08-17T03:18:41;96424.44;;;18.45;100.00
11444;BME280;5778;47.856;12.154;2023-08-17T03:21:09;96441.41;;;18.72;100.00
11444;BME280;5778;47.856;12.154;2023-08-17T03:23:38;96441.91;;;18.61;100.00
11444;BME280;5778;47.856;12.154;2023-08-17T03:26:05;96432.31;;;18.55;100.00
11444;BME280;5778;47.856;12.154;2023-08-17T03:28:32;96433.63;;;18.44;100.00
11444;BME280;5778;47.856;12.154;2023-08-17T03:30:59;96429.97;;;18.21;100.00
11444;BME280;5778;47.856;12.154;2023-08-17T03:33:26;96442.91;;;18.38;100.00
11444;BME280;5778;47.856;12.154;2023-08-17T03:35:53;96449.34;;;18.23;100.00
11444;BME280;5778;47.856;12.154;2023-08-17T03:38:20;96449.66;;;18.35;100.00
11444;BME280;5778;47.856;12.154;2023-08-17T03:40:49;96460.66;;;18.39;100.00
11444;BME280;5778;47.856;12.154;2023-08-17T03:43:16;96454.16;;;18.40;100.00
11444;BME280;5778;47.856;12.154;2023-08-17T03:45:43;96442.00;;;18.56;100.00
11444;BME280;5778;47.856;12.154;2023-08-17T03:48:10;96445.97;;;18.45;100.00
11444;BME280;5778;47.856;12.154;2023-08-17T03:50:37;96461.66;;;18.56;100.00
11444;BME280;5778;47.856;12.154;2023-08-17T03:53:04;96450.72;;;18.21;100.00
11444;BME280;5778;47.856;12.154;2023-08-17T03:55:32;96454.09;;;18.26;100.00
11444;BME280;5778;47.856;12.154;2023-08-17T03:58:00;96468.34;;;18.45;100.00
11444;BME280;5778;47.856;12.154;2023-08-17T04:00:28;96463.53;;;18.42;100.00
11444;BME280;5778;47.856;12.154;2023-08-17T04:02:58;96462.56;;;18.52;100.00
11444;BME280;5778;47.856;12.154;2023-08-17T04:05:25;96464.25;;;18.48;100.00
11444;BME280;5778;47.856;12.154;2023-08-17T04:07:52;96469.13;;;18.46;100.00
11444;BME280;5778;47.856;12.154;2023-08-17T04:10:19;96471.78;;;18.32;100.00
11444;BME280;5778;47.856;12.154;2023-08-17T04:12:46;96473.91;;;18.35;100.00
11444;BME280;5778;47.856;12.154;2023-08-17T04:15:15;96468.31;;;18.00;100.00
11444;BME280;5778;47.856;12.154;2023-08-17T04:17:42;96474.63;;;18.09;100.00
11444;BME280;5778;47.856;12.154;2023-08-17T04:20:10;96474.72;;;18.04;100.00
11444;BME280;5778;47.856;12.154;2023-08-17T04:22:38;96473.34;;;18.20;100.00
11444;BME280;5778;47.856;12.154;2023-08-17T04:25:05;96469.81;;;18.06;100.00
11444;BME280;5778;47.856;12.154;2023-08-17T04:27:32;96470.66;;;18.20;100.00
11444;BME280;5778;47.856;12.154;2023-08-17T04:30:00;96470.41;;;18.35;100.00
11444;BME280;5778;47.856;12.154;2023-08-17T04:32:34;96472.03;;;18.36;100.00
11444;BME280;5778;47.856;12.154;2023-08-17T04:35:01;96471.31;;;18.44;100.00
11444;BME280;5778;47.856;12.154;2023-08-17T04:37:28;96476.31;;;18.50;100.00
11444;BME280;5778;47.856;12.154;2023-08-17T04:39:55;96476.03;;;18.52;100.00
11444;BME280;5778;47.856;12.154;2023-08-17T04:42:23;96481.28;;;18.43;100.00
11444;BME280;5778;47.856;12.154;2023-08-17T04:44:52;96480.91;;;18.50;100.00
11444;BME280;5778;47.856;12.154;2023-08-17T04:47:19;96489.06;;;18.45;100.00
11444;BME280;5778;47.856;12.154;2023-08-17T04:49:47;96485.38;;;18.41;100.00
11444;BME280;5778;47.856;12.154;2023-08-17T04:52:15;96491.06;;;18.39;100.00
11444;BME280;5778;47.856;12.154;2023-08-17T04:54:42;96486.06;;;18.33;100.00
11444;BME280;5778;47.856;12.154;2023-08-17T04:57:09;96490.72;;;18.27;100.00
11444;BME280;5778;47.856;12.154;2023-08-17T04:59:36;96487.22;;;18.27;100.00
11444;BME280;5778;47.856;12.154;2023-08-17T05:02:03;96487.31;;;18.22;100.00
11444;BME280;5778;47.856;12.154;2023-08-17T05:04:32;96486.31;;;18.31;100.00
11444;BME280;5778;47.856;12.154;2023-08-17T05:07:01;96482.56;;;18.32;100.00
11444;BME280;5778;47.856;12.154;2023-08-17T05:09:28;96486.94;;;18.28;100.00
11444;BME280;5778;47.856;12.154;2023-08-17T05:11:57;96492.06;;;18.57;100.00
11444;BME280;5778;47.856;12.154;2023-08-17T05:14:24;96484.50;;;18.59;100.00
11444;BME280;5778;47.856;12.154;2023-08-17T05:16:52;96471.72;;;18.78;100.00
11444;BME280;5778;47.856;12.154;2023-08-17T05:19:19;96482.31;;;19.01;100.00
11444;BME280;5778;47.856;12.154;2023-08-17T05:21:46;96475.31;;;19.00;100.00
11444;BME280;5778;47.856;12.154;2023-08-17T05:24:18;96467.91;;;19.06;100.00
11444;BME280;5778;47.856;12.154;2023-08-17T05:26:46;96478.91;;;19.36;100.00
11444;BME280;5778;47.856;12.154;2023-08-17T05:29:16;96473.78;;;19.48;100.00
11444;BME280;5778;47.856;12.154;2023-08-17T05:31:43;96476.91;;;19.64;100.00
11444;BME280;5778;47.856;12.154;2023-08-17T05:34:10;96468.41;;;19.70;100.00
11444;BME280;5778;47.856;12.154;2023-08-17T05:36:39;96476.31;;;19.89;100.00
11444;BME280;5778;47.856;12.154;2023-08-17T05:39:06;96470.53;;;19.82;100.00
11444;BME280;5778;47.856;12.154;2023-08-17T05:41:36;96471.72;;;19.89;100.00
11444;BME280;5778;47.856;12.154;2023-08-17T05:44:04;96471.16;;;20.01;100.00
11444;BME280;5778;47.856;12.154;2023-08-17T05:46:32;96467.63;;;20.14;100.00
11444;BME280;5778;47.856;12.154;2023-08-17T05:49:00;96465.13;;;20.26;100.00
11444;BME280;5778;47.856;12.154;2023-08-17T05:51:27;96475.25;;;20.42;100.00
11444;BME280;5778;47.856;12.154;2023-08-17T05:53:54;96476.41;;;20.50;100.00
11444;BME280;5778;47.856;12.154;2023-08-17T05:56:22;96480.63;;;20.73;100.00
11444;BME280;5778;47.856;12.154;2023-08-17T05:58:51;96475.94;;;20.87;100.00
11444;BME280;5778;47.856;12.154;2023-08-17T06:01:18;96474.09;;;21.04;100.00
11444;BME280;5778;47.856;12.154;2023-08-17T06:03:46;96473.19;;;21.26;100.00
11444;BME280;5778;47.856;12.154;2023-08-17T06:06:13;96471.28;;;21.35;100.00
11444;BME280;5778;47.856;12.154;2023-08-17T06:08:40;96468.47;;;21.57;100.00
11444;BME280;5778;47.856;12.154;2023-08-17T06:11:07;96474.81;;;21.61;100.00
11444;BME280;5778;47.856;12.154;2023-08-17T06:13:34;96476.09;;;21.55;100.00
11444;BME280;5778;47.856;12.154;2023-08-17T06:16:04;96480.63;;;21.68;100.00
11444;BME280;5778;47.856;12.154;2023-08-17T06:18:31;96485.47;;;21.49;100.00
11444;BME280;5778;47.856;12.154;2023-08-17T06:20:58;96483.91;;;21.65;100.00
11444;BME280;5778;47.856;12.154;2023-08-17T06:23:25;96490.00;;;21.87;100.00
11444;BME280;5778;47.856;12.154;2023-08-17T06:25:56;96483.09;;;22.24;100.00
11444;BME280;5778;47.856;12.154;2023-08-17T06:28:23;96482.00;;;22.25;100.00
11444;BME280;5778;47.856;12.154;2023-08-17T06:30:51;96473.59;;;21.92;100.00
11444;BME280;5778;47.856;12.154;2023-08-17T06:33:21;96472.63;;;21.97;100.00
11444;BME280;5778;47.856;12.154;2023-08-17T06:35:49;96475.63;;;22.04;100.00
11444;BME280;5778;47.856;12.154;2023-08-17T06:38:16;96483.47;;;21.97;100.00
11444;BME280;5778;47.856;12.154;2023-08-17T06:40:44;96475.63;;;22.04;100.00
11444;BME280;5778;47.856;12.154;2023-08-17T06:43:12;96474.66;;;22.08;100.00
11444;BME280;5778;47.856;12.154;2023-08-17T06:45:39;96471.94;;;22.34;100.00
11444;BME280;5778;47.856;12.154;2023-08-17T06:48:06;96474.91;;;22.58;100.00
11444;BME280;5778;47.856;12.154;2023-08-17T06:50:35;96476.47;;;22.67;100.00
11444;BME280;5778;47.856;12.154;2023-08-17T06:53:02;96484.53;;;22.84;100.00
11444;BME280;5778;47.856;12.154;2023-08-17T06:55:30;96478.63;;;22.91;100.00
11444;BME280;5778;47.856;12.154;2023-08-17T06:57:57;96479.94;;;23.14;100.00
11444;BME280;5778;47.856;12.154;2023-08-17T07:00:24;96480.41;;;23.16;100.00
11444;BME280;5778;47.856;12.154;2023-08-17T07:02:51;96468.00;;;23.06;100.00
11444;BME280;5778;47.856;12.154;2023-08-17T07:05:18;96473.91;;;22.79;100.00
11444;BME280;5778;47.856;12.154;2023-08-17T07:07:47;96473.66;;;22.93;100.00
11444;BME280;5778;47.856;12.154;2023-08-17T07:10:14;96476.44;;;22.76;100.00
11444;BME280;5778;47.856;12.154;2023-08-17T07:12:41;96481.13;;;22.67;100.00
11444;BME280;5778;47.856;12.154;2023-08-17T07:15:09;96478.63;;;22.91;100.00
11444;BME280;5778;47.856;12.154;2023-08-17T07:17:36;96486.22;;;23.06;100.00
11444;BME280;5778;47.856;12.154;2023-08-17T07:20:04;96481.31;;;23.28;100.00
11444;BME280;5778;47.856;12.154;2023-08-17T07:22:33;96471.81;;;23.63;100.00
11444;BME280;5778;47.856;12.154;2023-08-17T07:25:02;96483.41;;;23.52;100.00
11444;BME280;5778;47.856;12.154;2023-08-17T07:27:29;96479.56;;;23.73;100.00
11444;BME280;5778;47.856;12.154;2023-08-17T07:29:56;96474.16;;;23.94;100.00
11444;BME280;5778;47.856;12.154;2023-08-17T07:32:23;96487.97;;;24.21;100.00
11444;BME280;5778;47.856;12.154;2023-08-17T07:34:51;96490.34;;;24.23;100.00
11444;BME280;5778;47.856;12.154;2023-08-17T07:37:19;96492.97;;;24.31;100.00
11444;BME280;5778;47.856;12.154;2023-08-17T07:39:46;96488.41;;;23.91;100.00
11444;BME280;5778;47.856;12.154;2023-08-17T07:42:14;96491.97;;;23.83;100.00
11444;BME280;5778;47.856;12.154;2023-08-17T07:44:41;96490.38;;;23.32;100.00
11444;BME280;5778;47.856;12.154;2023-08-17T07:47:09;96496.19;;;23.72;100.00
11444;BME280;5778;47.856;12.154;2023-08-17T07:49:36;96482.41;;;24.18;100.00
11444;BME280;5778;47.856;12.154;2023-08-17T07:52:04;96489.88;;;24.53;100.00
11444;BME280;5778;47.856;12.154;2023-08-17T07:54:31;96483.03;;;24.68;100.00
11444;BME280;5778;47.856;12.154;2023-08-17T07:56:58;96488.03;;;24.78;100.00
11444;BME280;5778;47.856;12.154;2023-08-17T07:59:27;96487.84;;;24.95;100.00
11444;BME280;5778;47.856;12.154;2023-08-17T08:01:54;96491.44;;;24.99;100.00
11444;BME280;5778;47.856;12.154;2023-08-17T08:04:21;96485.47;;;25.41;100.00
11444;BME280;5778;47.856;12.154;2023-08-17T08:06:48;96492.56;;;25.70;100.00
11444;BME280;5778;47.856;12.154;2023-08-17T08:09:15;96492.47;;;25.66;100.00
11444;BME280;5778;47.856;12.154;2023-08-17T08:11:42;96491.47;;;25.47;100.00
11444;BME280;5778;47.856;12.154;2023-08-17T08:14:09;96484.91;;;25.60;100.00
11444;BME280;5778;47.856;12.154;2023-08-17T08:16:38;96480.75;;;25.78;100.00
11444;BME280;5778;47.856;12.154;2023-08-17T08:19:05;96492.31;;;25.99;100.00
11444;BME280;5778;47.856;12.154;2023-08-17T08:21:31;96494.81;;;25.80;100.00
11444;BME280;5778;47.856;12.154;2023-08-17T08:23:58;96484.66;;;26.04;100.00
11444;BME280;5778;47.856;12.154;2023-08-17T08:26:25;96479.31;;;26.08;100.00
11444;BME280;5778;47.856;12.154;2023-08-17T08:28:52;96481.06;;;26.43;100.00
11444;BME280;5778;47.856;12.154;2023-08-17T08:31:20;96477.03;;;26.37;100.00
11444;BME280;5778;47.856;12.154;2023-08-17T08:33:48;96472.88;;;26.55;100.00
11444;BME280;5778;47.856;12.154;2023-08-17T08:36:17;96477.66;;;26.46;100.00
11444;BME280;5778;47.856;12.154;2023-08-17T08:38:44;96483.25;;;26.65;100.00
11444;BME280;5778;47.856;12.154;2023-08-17T08:41:11;96470.50;;;26.26;100.00
11444;BME280;5778;47.856;12.154;2023-08-17T08:43:39;96478.13;;;26.21;100.00
11444;BME280;5778;47.856;12.154;2023-08-17T08:46:06;96476.41;;;26.28;100.00
11444;BME280;5778;47.856;12.154;2023-08-17T08:48:34;96476.09;;;26.45;100.00
11444;BME280;5778;47.856;12.154;2023-08-17T08:51:03;96473.16;;;26.66;100.00
11444;BME280;5778;47.856;12.154;2023-08-17T08:53:38;96466.47;;;26.79;100.00
11444;BME280;5778;47.856;12.154;2023-08-17T08:56:11;96472.13;;;27.17;100.00
11444;BME280;5778;47.856;12.154;2023-08-17T08:58:40;96470.69;;;27.23;100.00
11444;BME280;5778;47.856;12.154;2023-08-17T09:01:08;96469.63;;;27.43;100.00
11444;BME280;5778;47.856;12.154;2023-08-17T09:03:37;96469.16;;;27.56;100.00
11444;BME280;5778;47.856;12.154;2023-08-17T09:06:07;96469.22;;;27.60;100.00
11444;BME280;5778;47.856;12.154;2023-08-17T09:08:36;96465.44;;;27.64;100.00
11444;BME280;5778;47.856;12.154;2023-08-17T09:13:30;96461.53;;;28.00;100.00
11444;BME280;5778;47.856;12.154;2023-08-17T09:15:59;96464.03;;;27.89;100.00
11444;BME280;5778;47.856;12.154;2023-08-17T09:18:26;96461.16;;;27.82;100.00
11444;BME280;5778;47.856;12.154;2023-08-17T09:20:54;96472.25;;;27.89;100.00
11444;BME280;5778;47.856;12.154;2023-08-17T09:23:23;96455.75;;;28.05;100.00
11444;BME280;5778;47.856;12.154;2023-08-17T09:25:50;96454.91;;;28.39;100.00
11444;BME280;5778;47.856;12.154;2023-08-17T09:28:23;96454.69;;;28.70;100.00
11444;BME280;5778;47.856;12.154;2023-08-17T09:30:54;96453.13;;;28.69;100.00
11444;BME280;5778;47.856;12.154;2023-08-17T09:33:23;96449.28;;;28.96;100.00
11444;BME280;5778;47.856;12.154;2023-08-17T09:35:51;96446.25;;;29.01;100.00
11444;BME280;5778;47.856;12.154;2023-08-17T09:38:18;96441.88;;;28.74;100.00
11444;BME280;5778;47.856;12.154;2023-08-17T09:40:47;96444.22;;;29.20;100.00
11444;BME280;5778;47.856;12.154;2023-08-17T09:43:15;96442.88;;;29.33;100.00
11444;BME280;5778;47.856;12.154;2023-08-17T09:45:46;96435.41;;;29.56;100.00
11444;BME280;5778;47.856;12.154;2023-08-17T09:48:15;96441.91;;;29.74;100.00
11444;BME280;5778;47.856;12.154;2023-08-17T09:50:43;96435.28;;;29.75;100.00
11444;BME280;5778;47.856;12.154;2023-08-17T09:53:12;96434.34;;;29.94;100.00
11444;BME280;5778;47.856;12.154;2023-08-17T09:55:41;96434.59;;;29.30;100.00
11444;BME280;5778;47.856;12.154;2023-08-17T09:58:09;96433.13;;;29.62;100.00
11444;BME280;5778;47.856;12.154;2023-08-17T10:00:43;96429.00;;;30.04;100.00
11444;BME280;5778;47.856;12.154;2023-08-17T10:03:11;96433.41;;;29.83;100.00
11444;BME280;5778;47.856;12.154;2023-08-17T10:05:41;96421.13;;;30.03;100.00
11444;BME280;5778;47.856;12.154;2023-08-17T10:08:10;96426.44;;;29.89;100.00
11444;BME280;5778;47.856;12.154;2023-08-17T10:10:40;96428.91;;;28.48;100.00
11444;BME280;5778;47.856;12.154;2023-08-17T10:13:12;96419.78;;;28.86;100.00
11444;BME280;5778;47.856;12.154;2023-08-17T10:15:45;96419.06;;;29.11;100.00
11444;BME280;5778;47.856;12.154;2023-08-17T10:18:20;96419.22;;;29.74;100.00
11444;BME280;5778;47.856;12.154;2023-08-17T10:20:54;96420.47;;;29.80;100.00
11444;BME280;5778;47.856;12.154;2023-08-17T10:23:27;96422.31;;;30.02;100.00
11444;BME280;5778;47.856;12.154;2023-08-17T10:25:55;96415.16;;;30.27;100.00
11444;BME280;5778;47.856;12.154;2023-08-17T10:28:24;96417.84;;;30.20;100.00
11444;BME280;5778;47.856;12.154;2023-08-17T10:30:51;96426.22;;;30.34;100.00
11444;BME280;5778;47.856;12.154;2023-08-17T10:33:18;96416.81;;;30.68;100.00
11444;BME280;5778;47.856;12.154;2023-08-17T10:35:46;96424.91;;;29.10;100.00
11444;BME280;5778;47.856;12.154;2023-08-17T10:38:15;96421.16;;;30.36;100.00
11444;BME280;5778;47.856;12.154;2023-08-17T10:40:43;96417.25;;;30.77;100.00
11444;BME280;5778;47.856;12.154;2023-08-17T10:43:11;96414.59;;;30.84;100.00
11444;BME280;5778;47.856;12.154;2023-08-17T10:45:39;96411.72;;;30.70;100.00
11444;BME280;5778;47.856;12.154;2023-08-17T10:48:27;96414.81;;;30.68;100.00
11444;BME280;5778;47.856;12.154;2023-08-17T10:51:03;96409.28;;;30.65;100.00
11444;BME280;5778;47.856;12.154;2023-08-17T10:53:35;96410.41;;;29.09;100.00
11444;BME280;5778;47.856;12.154;2023-08-17T10:56:07;96408.97;;;29.19;100.00
11444;BME280;5778;47.856;12.154;2023-08-17T10:58:35;96405.91;;;30.42;100.00
11444;BME280;5778;47.856;12.154;2023-08-17T11:01:04;96407.53;;;30.46;100.00
11444;BME280;5778;47.856;12.154;2023-08-17T11:03:31;96409.47;;;30.82;100.00
11444;BME280;5778;47.856;12.154;2023-08-17T11:06:14;96409.94;;;31.42;100.00
11444;BME280;5778;47.856;12.154;2023-08-17T11:08:52;96407.28;;;31.05;100.00
11444;BME280;5778;47.856;12.154;2023-08-17T11:11:20;96402.81;;;31.30;100.00
11444;BME280;5778;47.856;12.154;2023-08-17T11:13:48;96397.78;;;30.92;100.00
11444;BME280;5778;47.856;12.154;2023-08-17T11:16:17;96401.81;;;31.63;100.00
11444;BME280;5778;47.856;12.154;2023-08-17T11:18:46;96395.41;;;32.20;100.00
11444;BME280;5778;47.856;12.154;2023-08-17T11:21:12;96388.81;;;32.52;99.65
11444;BME280;5778;47.856;12.154;2023-08-17T11:23:40;96389.19;;;32.30;90.37
11444;BME280;5778;47.856;12.154;2023-08-17T11:26:08;96390.31;;;31.47;100.00
11444;BME280;5778;47.856;12.154;2023-08-17T11:28:35;96390.38;;;31.54;100.00
11444;BME280;5778;47.856;12.154;2023-08-17T11:31:05;96380.22;;;30.60;100.00
11444;BME280;5778;47.856;12.154;2023-08-17T11:33:36;96378.66;;;30.59;100.00
11444;BME280;5778;47.856;12.154;2023-08-17T11:36:05;96388.78;;;31.49;100.00
11444;BME280;5778;47.856;12.154;2023-08-17T11:38:33;96378.13;;;30.90;100.00
11444;BME280;5778;47.856;12.154;2023-08-17T11:41:02;96385.81;;;31.79;100.00
11444;BME280;5778;47.856;12.154;2023-08-17T11:43:30;96386.44;;;32.33;100.00
11444;BME280;5778;47.856;12.154;2023-08-17T11:45:57;96376.63;;;32.53;100.00
11444;BME280;5778;47.856;12.154;2023-08-17T11:48:24;96378.63;;;32.91;94.20
11444;BME280;5778;47.856;12.154;2023-08-17T11:50:53;96380.13;;;32.26;88.58
11444;BME280;5778;47.856;12.154;2023-08-17T11:53:20;96372.34;;;30.15;100.00
11444;BME280;5778;47.856;12.154;2023-08-17T11:55:48;96380.19;;;30.57;100.00
11444;BME280;5778;47.856;12.154;2023-08-17T11:58:15;96372.44;;;31.16;100.00
11444;BME280;5778;47.856;12.154;2023-08-17T12:00:43;96375.63;;;31.83;100.00
11444;BME280;5778;47.856;12.154;2023-08-17T12:03:13;96363.59;;;32.26;96.15
11444;BME280;5778;47.856;12.154;2023-08-17T12:05:42;96362.09;;;31.50;100.00
11444;BME280;5778;47.856;12.154;2023-08-17T12:08:12;96353.69;;;32.04;100.00
11444;BME280;5778;47.856;12.154;2023-08-17T12:10:40;96357.53;;;30.27;100.00
11444;BME280;5778;47.856;12.154;2023-08-17T12:13:11;96361.03;;;31.07;100.00
11444;BME280;5778;47.856;12.154;2023-08-17T12:15:38;96351.72;;;30.32;100.00
11444;BME280;5778;47.856;12.154;2023-08-17T12:18:05;96353.84;;;30.92;100.00
11444;BME280;5778;47.856;12.154;2023-08-17T12:20:33;96353.25;;;31.20;94.10
11444;BME280;5778;47.856;12.154;2023-08-17T12:23:02;96350.19;;;32.21;87.69
11444;BME280;5778;47.856;12.154;2023-08-17T12:25:31;96345.94;;;32.58;88.75
11444;BME280;5778;47.856;12.154;2023-08-17T12:27:58;96348.28;;;32.46;99.57
11444;BME280;5778;47.856;12.154;2023-08-17T12:30:28;96335.69;;;32.73;90.78
11444;BME280;5778;47.856;12.154;2023-08-17T12:32:57;96343.22;;;32.97;100.00
11444;BME280;5778;47.856;12.154;2023-08-17T12:35:24;96335.69;;;32.31;94.87
11444;BME280;5778;47.856;12.154;2023-08-17T12:37:51;96331.69;;;31.22;80.58
11444;BME280;5778;47.856;12.154;2023-08-17T12:40:18;96326.22;;;30.71;100.00
11444;BME280;5778;47.856;12.154;2023-08-17T12:42:46;96327.59;;;31.02;100.00
11444;BME280;5778;47.856;12.154;2023-08-17T12:45:14;96329.44;;;30.84;100.00
11444;BME280;5778;47.856;12.154;2023-08-17T12:47:42;96325.53;;;30.85;98.94
11444;BME280;5778;47.856;12.154;2023-08-17T12:50:09;96327.88;;;30.83;100.00
11444;BME280;5778;47.856;12.154;2023-08-17T12:52:36;96325.31;;;30.60;86.06
11444;BME280;5778;47.856;12.154;2023-08-17T12:55:04;96322.88;;;30.52;79.41
11444;BME280;5778;47.856;12.154;2023-08-17T12:57:31;96321.88;;;30.67;87.32